createdAt,value
2017-07-11T00:01:29.544Z,101091.13
2017-07-11T00:03:55.781Z,101084.69
2017-07-11T00:06:22.031Z,101091.17
2017-07-11T00:08:48.279Z,101092.57
2017-07-11T00:11:14.530Z,101090.20
2017-07-11T00:13:40.759Z,101093.64
2017-07-11T00:17:35.591Z,101088.08
2017-07-11T00:20:01.862Z,101090.10
2017-07-11T00:22:28.092Z,101086.42
2017-07-11T00:24:54.324Z,101084.81
2017-07-11T00:27:20.565Z,101091.81
2017-07-11T00:29:46.925Z,101089.42
2017-07-11T00:32:13.189Z,101089.52
2017-07-11T00:34:39.430Z,101088.87
2017-07-11T00:37:05.665Z,101092.00
2017-07-11T00:39:31.897Z,101091.52
2017-07-11T00:41:58.148Z,101094.84
2017-07-11T00:44:24.425Z,101096.19
2017-07-11T00:46:50.672Z,101091.23
2017-07-11T00:49:16.920Z,101089.59
2017-07-11T00:51:43.163Z,101092.95
2017-07-11T00:54:09.390Z,101088.92
2017-07-11T00:56:35.665Z,101095.05
2017-07-11T00:59:01.921Z,101095.20
2017-07-11T01:01:28.177Z,101097.44
2017-07-11T01:03:54.427Z,101107.20
2017-07-11T01:06:20.656Z,101101.35
2017-07-11T01:08:46.924Z,101101.33
2017-07-11T01:11:13.171Z,101104.03
2017-07-11T01:13:39.433Z,101101.66
2017-07-11T01:17:35.291Z,101100.69
2017-07-11T01:20:01.969Z,101099.05
2017-07-11T01:22:28.226Z,101097.70
2017-07-11T01:24:54.459Z,101108.23
2017-07-11T01:27:20.707Z,101103.88
2017-07-11T01:29:47.024Z,101105.13
2017-07-11T01:32:13.276Z,101097.48
2017-07-11T01:34:39.562Z,101096.50
2017-07-11T01:37:05.815Z,101092.98
2017-07-11T01:39:32.098Z,101090.59
2017-07-11T01:41:58.361Z,101095.25
2017-07-11T01:44:24.636Z,101095.88
2017-07-11T01:46:50.948Z,101096.77
2017-07-11T01:49:17.241Z,101096.39
2017-07-11T01:51:43.500Z,101091.02
2017-07-11T01:54:09.745Z,101094.11
2017-07-11T01:56:35.991Z,101093.61
2017-07-11T01:59:02.272Z,101088.93
2017-07-11T02:01:28.529Z,101094.86
2017-07-11T02:03:54.792Z,101096.98
2017-07-11T02:06:21.047Z,101093.02
2017-07-11T02:08:47.324Z,101091.47
2017-07-11T02:11:13.887Z,101087.73
2017-07-11T02:13:40.135Z,101087.50
2017-07-11T02:17:35.496Z,101092.91
2017-07-11T02:20:01.742Z,101095.19
2017-07-11T02:22:27.978Z,101103.14
2017-07-11T02:24:54.212Z,101095.77
2017-07-11T02:27:20.443Z,101098.91
2017-07-11T02:29:46.690Z,101098.73
2017-07-11T02:32:12.933Z,101101.75
2017-07-11T02:34:39.191Z,101104.97
2017-07-11T02:37:05.457Z,101100.63
2017-07-11T02:39:31.699Z,101104.47
2017-07-11T02:41:57.996Z,101103.52
2017-07-11T02:44:24.224Z,101109.33
2017-07-11T02:46:50.476Z,101111.02
2017-07-11T02:49:16.736Z,101113.60
2017-07-11T02:51:42.989Z,101108.91
2017-07-11T02:54:09.262Z,101112.82
2017-07-11T02:56:35.542Z,101104.27
2017-07-11T02:59:01.777Z,101113.53
2017-07-11T03:01:28.002Z,101109.06
2017-07-11T03:03:54.267Z,101110.38
2017-07-11T03:06:20.536Z,101100.91
2017-07-11T03:08:46.762Z,101105.19
2017-07-11T03:11:13.063Z,101099.14
2017-07-11T03:13:39.325Z,101105.69
2017-07-11T03:17:36.400Z,101111.09
2017-07-11T03:20:02.649Z,101106.94
2017-07-11T03:22:28.891Z,101104.48
2017-07-11T03:24:55.157Z,101104.36
2017-07-11T03:27:21.407Z,101092.83
2017-07-11T03:29:47.679Z,101096.20
2017-07-11T03:32:13.920Z,101094.05
2017-07-11T03:34:40.185Z,101092.38
2017-07-11T03:37:06.430Z,101094.98
2017-07-11T03:39:32.680Z,101090.42
2017-07-11T03:41:59.263Z,101095.67
2017-07-11T03:44:25.500Z,101090.05
2017-07-11T03:46:51.737Z,101090.49
2017-07-11T03:49:17.964Z,101088.25
2017-07-11T03:51:44.191Z,101097.25
2017-07-11T03:54:10.457Z,101095.87
2017-07-11T03:56:36.698Z,101094.40
2017-07-11T03:59:02.943Z,101096.48
2017-07-11T04:01:29.269Z,101093.30
2017-07-11T04:03:55.541Z,101096.87
2017-07-11T04:06:21.828Z,101094.86
2017-07-11T04:08:48.087Z,101097.77
2017-07-11T04:11:14.326Z,101101.16
2017-07-11T04:13:40.589Z,101110.34
2017-07-11T04:17:35.340Z,101108.99
2017-07-11T04:20:01.613Z,101112.82
2017-07-11T04:22:27.848Z,101111.30
2017-07-11T04:24:54.076Z,101121.70
2017-07-11T04:27:20.329Z,101126.19
2017-07-11T04:29:46.551Z,101133.41
2017-07-11T04:32:12.818Z,101137.98
2017-07-11T04:34:39.069Z,101138.31
2017-07-11T04:37:05.299Z,101139.77
2017-07-11T04:39:31.535Z,101126.37
2017-07-11T04:41:57.797Z,101134.41
2017-07-11T04:44:24.060Z,101138.03
2017-07-11T04:46:50.289Z,101142.91
2017-07-11T04:49:16.521Z,101147.88
2017-07-11T04:51:42.767Z,101149.62
2017-07-11T04:54:09.000Z,101144.82
2017-07-11T04:56:36.113Z,101141.17
2017-07-11T04:59:02.347Z,101139.81
2017-07-11T05:01:28.584Z,101138.23
2017-07-11T05:03:54.809Z,101148.01
2017-07-11T05:06:21.072Z,101152.95
2017-07-11T05:08:47.372Z,101152.89
2017-07-11T05:11:13.621Z,101149.11
2017-07-11T05:13:39.862Z,101148.05
2017-07-11T05:17:35.124Z,101155.60
2017-07-11T05:20:02.004Z,101157.34
2017-07-11T05:22:28.271Z,101159.25
2017-07-11T05:24:54.532Z,101160.58
2017-07-11T05:27:20.761Z,101163.04
2017-07-11T05:29:47.002Z,101163.16
2017-07-11T05:32:13.229Z,101167.14
2017-07-11T05:34:39.488Z,101167.31
2017-07-11T05:37:05.722Z,101167.66
2017-07-11T05:39:31.953Z,101166.30
2017-07-11T05:41:58.219Z,101167.45
2017-07-11T05:44:24.487Z,101169.92
2017-07-11T05:46:50.855Z,101166.38
2017-07-11T05:49:17.100Z,101174.11
2017-07-11T05:51:43.324Z,101171.73
2017-07-11T05:54:09.573Z,101179.41
2017-07-11T05:56:35.791Z,101192.23
2017-07-11T05:59:02.106Z,101186.59
2017-07-11T06:01:28.360Z,101189.30
2017-07-11T06:03:54.603Z,101194.91
2017-07-11T06:06:20.842Z,101196.90
2017-07-11T06:08:47.117Z,101203.77
2017-07-11T06:11:13.380Z,101210.10
2017-07-11T06:13:39.620Z,101205.17
2017-07-11T06:17:35.884Z,101199.18
2017-07-11T06:20:02.127Z,101202.38
2017-07-11T06:22:28.379Z,101207.55
2017-07-11T06:24:55.192Z,101216.98
2017-07-11T06:27:21.443Z,101213.37
2017-07-11T06:29:47.671Z,101213.80
2017-07-11T06:32:13.909Z,101213.50
2017-07-11T06:34:40.175Z,101215.91
2017-07-11T06:37:06.440Z,101222.00
2017-07-11T06:39:32.688Z,101222.00
2017-07-11T06:41:58.924Z,101221.73
2017-07-11T06:44:25.180Z,101217.06
2017-07-11T06:46:51.434Z,101222.92
2017-07-11T06:49:17.691Z,101221.20
2017-07-11T06:51:43.932Z,101223.00
2017-07-11T06:54:10.175Z,101222.69
2017-07-11T06:56:36.428Z,101231.13
2017-07-11T06:59:02.695Z,101237.75
2017-07-11T07:01:28.948Z,101237.88
2017-07-11T07:03:55.203Z,101236.16
2017-07-11T07:06:21.444Z,101231.95
2017-07-11T07:08:47.693Z,101236.41
2017-07-11T07:11:13.959Z,101242.38
2017-07-11T07:13:40.189Z,101255.30
2017-07-11T07:17:35.939Z,101255.23
2017-07-11T07:20:02.197Z,101252.12
2017-07-11T07:22:28.429Z,101252.11
2017-07-11T07:24:54.659Z,101258.47
2017-07-11T07:27:20.898Z,101262.92
2017-07-11T07:29:47.173Z,101263.59
2017-07-11T07:32:13.413Z,101266.45
2017-07-11T07:34:39.666Z,101263.06
2017-07-11T07:37:05.887Z,101265.36
2017-07-11T07:39:32.116Z,101268.56
2017-07-11T07:41:58.368Z,101268.28
2017-07-11T07:44:24.605Z,101264.50
2017-07-11T07:46:50.846Z,101264.84
2017-07-11T07:49:17.245Z,101269.02
2017-07-11T07:51:43.574Z,101263.39
2017-07-11T07:54:09.833Z,101266.92
2017-07-11T07:56:36.076Z,101264.36
2017-07-11T07:59:02.403Z,101265.25
2017-07-11T08:01:28.628Z,101267.11
2017-07-11T08:03:55.004Z,101271.29
2017-07-11T08:06:21.292Z,101269.23
2017-07-11T08:08:47.777Z,101270.73
2017-07-11T08:11:14.332Z,101266.95
2017-07-11T08:13:40.681Z,101263.55
2017-07-11T08:17:35.655Z,101263.19
2017-07-11T08:20:02.073Z,101258.80
2017-07-11T08:22:28.475Z,101257.19
2017-07-11T08:24:54.767Z,101260.91
2017-07-11T08:27:21.421Z,101255.80
2017-07-11T08:29:47.703Z,101257.79
2017-07-11T08:32:13.987Z,101262.08
2017-07-11T08:34:40.235Z,101253.75
2017-07-11T08:37:06.474Z,101253.90
2017-07-11T08:39:32.729Z,101250.87
2017-07-11T08:41:58.969Z,101253.79
2017-07-11T08:44:25.248Z,101252.36
2017-07-11T08:46:51.489Z,101246.25
2017-07-11T08:49:17.735Z,101241.41
2017-07-11T08:51:43.968Z,101246.95
2017-07-11T08:54:10.224Z,101246.45
2017-07-11T08:56:36.499Z,101242.63
2017-07-11T08:59:02.751Z,101248.47
2017-07-11T09:01:28.996Z,101248.70
2017-07-11T09:03:55.238Z,101249.41
2017-07-11T09:06:21.477Z,101241.55
2017-07-11T09:08:47.733Z,101239.08
2017-07-11T09:11:13.989Z,101240.13
2017-07-11T09:13:40.249Z,101243.05
2017-07-11T09:17:35.437Z,101238.67
2017-07-11T09:20:01.883Z,101242.57
2017-07-11T09:22:28.887Z,101243.52
2017-07-11T09:24:55.135Z,101244.26
2017-07-11T09:27:21.397Z,101245.28
2017-07-11T09:29:48.380Z,101242.59
2017-07-11T09:32:14.630Z,101244.26
2017-07-11T09:34:40.864Z,101245.39
2017-07-11T09:37:07.112Z,101251.45
2017-07-11T09:39:33.345Z,101247.68
2017-07-11T09:41:59.588Z,101248.35
2017-07-11T09:44:25.871Z,101244.48
2017-07-11T09:46:52.125Z,101249.76
2017-07-11T09:49:18.359Z,101249.27
2017-07-11T09:51:45.353Z,101256.77
2017-07-11T09:54:11.605Z,101256.84
2017-07-11T09:56:37.903Z,101255.15
2017-07-11T09:59:04.156Z,101263.14
2017-07-11T10:01:30.431Z,101268.24
2017-07-11T10:03:56.668Z,101264.41
2017-07-11T10:06:22.919Z,101264.33
2017-07-11T10:08:49.203Z,101275.70
2017-07-11T10:11:15.444Z,101261.20
2017-07-11T10:13:41.685Z,101259.79
2017-07-11T10:17:35.196Z,101265.55
2017-07-11T10:20:01.444Z,101268.14
2017-07-11T10:22:27.705Z,101262.44
2017-07-11T10:24:54.980Z,101272.05
2017-07-11T10:27:21.223Z,101269.58
2017-07-11T10:29:47.504Z,101274.41
2017-07-11T10:32:14.623Z,101262.55
2017-07-11T10:34:40.987Z,101266.91
2017-07-11T10:37:07.257Z,101281.37
2017-07-11T10:39:33.507Z,101276.55
2017-07-11T10:41:59.757Z,101266.75
2017-07-11T10:44:26.015Z,101276.93
2017-07-11T10:46:52.305Z,101277.25
2017-07-11T10:49:18.568Z,101279.31
2017-07-11T10:51:44.813Z,101280.27
2017-07-11T10:54:11.092Z,101291.37
2017-07-11T10:56:37.338Z,101300.07
2017-07-11T10:59:03.603Z,101288.95
2017-07-11T11:01:29.848Z,101285.46
2017-07-11T11:03:56.092Z,101289.02
2017-07-11T11:06:22.315Z,101291.98
2017-07-11T11:08:48.560Z,101286.34
2017-07-11T11:11:14.852Z,101290.48
2017-07-11T11:13:41.109Z,101283.26
2017-07-11T11:17:35.888Z,101288.49
2017-07-11T11:20:02.138Z,101289.00
2017-07-11T11:22:28.375Z,101289.83
2017-07-11T11:24:54.614Z,101298.89
2017-07-11T11:27:20.855Z,101295.10
2017-07-11T11:29:47.146Z,101293.39
2017-07-11T11:32:13.379Z,101289.25
2017-07-11T11:34:39.620Z,101296.34
2017-07-11T11:37:05.864Z,101297.06
2017-07-11T11:39:32.101Z,101305.75
2017-07-11T11:41:58.380Z,101296.37
2017-07-11T11:44:24.628Z,101297.02
2017-07-11T11:46:50.893Z,101292.36
2017-07-11T11:49:17.145Z,101295.98
2017-07-11T11:51:43.398Z,101293.42
2017-07-11T11:54:09.724Z,101291.23
2017-07-11T11:56:35.988Z,101299.16
2017-07-11T11:59:02.991Z,101291.16
2017-07-11T12:01:29.241Z,101291.81
2017-07-11T12:03:55.484Z,101298.41
2017-07-11T12:06:21.778Z,101290.45
2017-07-11T12:08:48.028Z,101295.38
2017-07-11T12:11:14.270Z,101293.00
2017-07-11T12:13:40.525Z,101291.88
2017-07-11T12:17:35.663Z,101293.76
2017-07-11T12:20:01.909Z,101296.05
2017-07-11T12:22:28.168Z,101297.63
2017-07-11T12:24:54.435Z,101299.81
2017-07-11T12:27:20.691Z,101309.75
2017-07-11T12:29:46.939Z,101313.05
2017-07-11T12:32:13.179Z,101307.55
2017-07-11T12:34:39.422Z,101308.37
2017-07-11T12:37:06.435Z,101306.41
2017-07-11T12:39:32.741Z,101303.06
2017-07-11T12:41:59.011Z,101303.08
2017-07-11T12:44:25.999Z,101311.17
2017-07-11T12:46:52.274Z,101305.16
2017-07-11T12:49:18.539Z,101305.98
2017-07-11T12:51:44.806Z,101314.47
2017-07-11T12:54:11.094Z,101310.39
2017-07-11T12:56:37.336Z,101318.54
2017-07-11T12:59:03.605Z,101309.09
2017-07-11T13:01:29.856Z,101321.95
2017-07-11T13:03:56.095Z,101323.76
2017-07-11T13:06:23.100Z,101321.02
2017-07-11T13:08:49.343Z,101314.73
2017-07-11T13:11:15.832Z,101315.63
2017-07-11T13:13:42.081Z,101318.76
2017-07-11T13:17:35.287Z,101319.16
2017-07-11T13:20:02.349Z,101316.66
2017-07-11T13:22:28.617Z,101318.14
2017-07-11T13:24:54.924Z,101322.27
2017-07-11T13:27:21.185Z,101319.11
2017-07-11T13:29:47.416Z,101326.53
2017-07-11T13:32:13.669Z,101324.90
2017-07-11T13:34:39.902Z,101325.73
2017-07-11T13:37:06.152Z,101323.17
2017-07-11T13:39:32.432Z,101324.09
2017-07-11T13:41:58.676Z,101324.91
2017-07-11T13:44:24.946Z,101311.70
2017-07-11T13:46:51.178Z,101320.66
2017-07-11T13:49:17.415Z,101316.92
2017-07-11T13:51:43.656Z,101313.58
2017-07-11T13:54:09.910Z,101312.37
2017-07-11T13:56:36.199Z,101306.73
2017-07-11T13:59:02.465Z,101308.47
2017-07-11T14:01:28.738Z,101306.90
2017-07-11T14:03:55.728Z,101307.13
2017-07-11T14:06:21.983Z,101300.92
2017-07-11T14:08:48.239Z,101301.92
2017-07-11T14:11:15.244Z,101303.16
2017-07-11T14:13:41.476Z,101297.22
2017-07-11T14:17:36.900Z,101290.21
2017-07-11T14:20:03.172Z,101298.32
2017-07-11T14:22:29.450Z,101293.17
2017-07-11T14:24:55.679Z,101294.77
2017-07-11T14:27:21.912Z,101299.81
2017-07-11T14:29:48.603Z,101296.39
2017-07-11T14:32:14.908Z,101303.67
2017-07-11T14:34:41.922Z,101302.20
2017-07-11T14:37:08.173Z,101292.47
2017-07-11T14:39:34.449Z,101296.70
2017-07-11T14:42:00.698Z,101291.95
2017-07-11T14:44:26.940Z,101290.45
2017-07-11T14:46:53.227Z,101288.61
2017-07-11T14:49:19.494Z,101289.17
2017-07-11T14:51:45.757Z,101288.41
2017-07-11T14:54:12.739Z,101294.88
2017-07-11T14:56:38.971Z,101288.25
2017-07-11T14:59:05.256Z,101281.78
2017-07-11T15:01:32.299Z,101284.34
2017-07-11T15:03:59.290Z,101277.85
2017-07-11T15:06:25.545Z,101283.14
2017-07-11T15:08:51.792Z,101284.16
2017-07-11T15:11:18.052Z,101279.89
2017-07-11T15:13:44.332Z,101271.09
2017-07-11T15:17:35.671Z,101273.52
2017-07-11T15:20:01.948Z,101267.39
2017-07-11T15:22:28.812Z,101268.66
2017-07-11T15:24:55.056Z,101262.08
2017-07-11T15:27:21.317Z,101268.34
2017-07-11T15:29:47.591Z,101266.43
2017-07-11T15:32:13.828Z,101262.56
2017-07-11T15:34:40.084Z,101262.05
2017-07-11T15:37:06.327Z,101262.58
2017-07-11T15:39:32.577Z,101256.27
2017-07-11T15:41:58.839Z,101255.02
2017-07-11T15:44:25.069Z,101251.09
2017-07-11T15:46:51.322Z,101247.08
2017-07-11T15:49:17.568Z,101258.02
2017-07-11T15:51:44.564Z,101262.48
2017-07-11T15:54:10.955Z,101266.50
2017-07-11T15:56:37.193Z,101271.28
2017-07-11T15:59:03.485Z,101269.62
2017-07-11T16:01:29.787Z,101272.77
2017-07-11T16:03:56.459Z,101268.09
2017-07-11T16:06:22.716Z,101265.11
2017-07-11T16:08:49.087Z,101265.89
2017-07-11T16:11:15.376Z,101263.59
2017-07-11T16:13:41.660Z,101262.81
2017-07-11T16:17:35.461Z,101261.66
2017-07-11T16:20:02.478Z,101256.60
2017-07-11T16:22:28.737Z,101259.60
2017-07-11T16:24:55.775Z,101256.74
2017-07-11T16:27:22.010Z,101247.98
2017-07-11T16:29:48.249Z,101251.97
2017-07-11T16:32:14.515Z,101254.97
2017-07-11T16:34:40.761Z,101253.94
2017-07-11T16:37:07.029Z,101255.91
2017-07-11T16:39:34.383Z,101250.32
2017-07-11T16:42:01.414Z,101247.55
2017-07-11T16:44:27.684Z,101249.19
2017-07-11T16:46:53.949Z,101248.73
2017-07-11T16:49:20.224Z,101241.42
2017-07-11T16:51:46.469Z,101250.77
2017-07-11T16:54:12.704Z,101250.08
2017-07-11T16:56:38.965Z,101252.25
2017-07-11T16:59:05.226Z,101253.55
2017-07-11T17:01:32.256Z,101255.26
2017-07-11T17:03:58.522Z,101254.89
2017-07-11T17:06:24.765Z,101254.48
2017-07-11T17:08:51.037Z,101251.02
2017-07-11T17:11:17.289Z,101249.87
2017-07-11T17:13:44.329Z,101260.28
2017-07-11T17:17:35.252Z,101252.23
2017-07-11T17:20:01.504Z,101253.30
2017-07-11T17:22:27.788Z,101258.24
2017-07-11T17:24:54.031Z,101257.75
2017-07-11T17:27:21.049Z,101260.82
2017-07-11T17:29:47.313Z,101269.21
2017-07-11T17:32:13.585Z,101269.48
2017-07-11T17:34:39.884Z,101277.42
2017-07-11T17:37:06.159Z,101264.99
2017-07-11T17:39:32.422Z,101258.33
2017-07-11T17:41:59.421Z,101254.09
2017-07-11T17:44:25.824Z,101252.56
2017-07-11T17:46:52.097Z,101254.27
2017-07-11T17:49:18.367Z,101251.51
2017-07-11T17:51:44.635Z,101252.03
2017-07-11T17:54:11.125Z,101253.78
2017-07-11T17:56:38.119Z,101241.80
2017-07-11T17:59:04.457Z,101242.78
2017-07-11T18:01:30.711Z,101246.27
2017-07-11T18:03:56.960Z,101246.20
2017-07-11T18:06:23.228Z,101242.84
2017-07-11T18:08:49.506Z,101246.05
2017-07-11T18:11:15.796Z,101249.23
2017-07-11T18:13:42.040Z,101255.27
2017-07-11T18:17:35.930Z,101239.14
2017-07-11T18:20:02.168Z,101241.95
2017-07-11T18:22:28.448Z,101240.72
2017-07-11T18:24:54.682Z,101237.08
2017-07-11T18:27:20.941Z,101242.11
2017-07-11T18:29:47.204Z,101246.95
2017-07-11T18:32:13.575Z,101254.80
2017-07-11T18:34:39.861Z,101260.89
2017-07-11T18:37:06.107Z,101267.05
2017-07-11T18:39:32.384Z,101271.98
2017-07-11T18:41:58.656Z,101291.23
2017-07-11T18:44:24.921Z,101280.91
2017-07-11T18:46:51.229Z,101270.94
2017-07-11T18:49:17.483Z,101273.02
2017-07-11T18:51:43.735Z,101272.65
2017-07-11T18:54:10.047Z,101278.76
2017-07-11T18:56:36.509Z,101290.14
2017-07-11T18:59:03.551Z,101286.58
2017-07-11T19:01:29.807Z,101280.04
2017-07-11T19:03:56.067Z,101275.25
2017-07-11T19:06:22.338Z,101278.52
2017-07-11T19:08:48.603Z,101273.81
2017-07-11T19:11:14.868Z,101281.45
2017-07-11T19:13:41.193Z,101279.46
2017-07-11T19:17:37.611Z,101282.06
2017-07-11T19:20:03.897Z,101279.50
2017-07-11T19:22:30.144Z,101283.78
2017-07-11T19:24:56.427Z,101280.21
2017-07-11T19:27:22.707Z,101288.67
2017-07-11T19:29:49.021Z,101296.88
2017-07-11T19:32:16.053Z,101297.67
2017-07-11T19:34:42.323Z,101293.66
2017-07-11T19:37:08.583Z,101280.74
2017-07-11T19:39:34.857Z,101274.73
2017-07-11T19:42:01.116Z,101271.98
2017-07-11T19:44:27.405Z,101269.83
2017-07-11T19:46:53.703Z,101272.38
2017-07-11T19:49:19.991Z,101273.81
2017-07-11T19:51:46.277Z,101273.28
2017-07-11T19:54:12.563Z,101281.37
2017-07-11T19:56:38.879Z,101285.58
2017-07-11T19:59:05.165Z,101275.92
2017-07-11T20:01:31.441Z,101269.25
2017-07-11T20:03:57.746Z,101263.39
2017-07-11T20:06:24.080Z,101266.71
2017-07-11T20:08:50.405Z,101279.28
2017-07-11T20:11:16.684Z,101283.59
2017-07-11T20:13:42.952Z,101275.52
2017-07-11T20:17:36.406Z,101282.41
2017-07-11T20:20:02.717Z,101286.25
2017-07-11T20:22:28.996Z,101288.05
2017-07-11T20:24:55.263Z,101290.12
2017-07-11T20:27:21.537Z,101290.17
2017-07-11T20:29:54.783Z,101289.12
2017-07-11T20:32:21.050Z,101291.50
2017-07-11T20:34:47.341Z,101304.14
2017-07-11T20:37:13.645Z,101302.30
2017-07-11T20:39:39.977Z,101305.96
2017-07-11T20:42:06.278Z,101306.64
2017-07-11T20:44:32.553Z,101305.71
2017-07-11T20:46:58.853Z,101317.78
2017-07-11T20:49:25.136Z,101309.63
2017-07-11T20:51:51.427Z,101316.58
2017-07-11T20:54:17.714Z,101318.16
2017-07-11T20:56:43.988Z,101313.06
2017-07-11T20:59:10.282Z,101315.63
2017-07-11T21:01:37.324Z,101313.92
2017-07-11T21:04:03.609Z,101314.70
2017-07-11T21:06:29.875Z,101315.25
2017-07-11T21:08:56.135Z,101307.30
2017-07-11T21:11:22.439Z,101310.10
2017-07-11T21:13:48.721Z,101304.89
2017-07-11T21:17:36.144Z,101292.56
2017-07-11T21:20:02.500Z,101282.91
2017-07-11T21:22:28.781Z,101284.12
2017-07-11T21:24:55.035Z,101288.65
2017-07-11T21:27:21.308Z,101292.62
2017-07-11T21:29:47.562Z,101285.81
2017-07-11T21:32:13.829Z,101292.69
2017-07-11T21:34:40.102Z,101288.90
2017-07-11T21:37:06.369Z,101287.27
2017-07-11T21:39:32.650Z,101285.94
2017-07-11T21:41:58.906Z,101281.72
2017-07-11T21:44:25.157Z,101277.50
2017-07-11T21:46:51.423Z,101268.77
2017-07-11T21:49:17.684Z,101271.55
2017-07-11T21:51:44.693Z,101272.44
2017-07-11T21:54:10.989Z,101281.28
2017-07-11T21:56:37.242Z,101281.02
2017-07-11T21:59:03.558Z,101276.45
2017-07-11T22:01:29.864Z,101270.05
2017-07-11T22:03:56.133Z,101275.78
2017-07-11T22:06:22.374Z,101275.20
2017-07-11T22:08:48.630Z,101275.84
2017-07-11T22:11:15.656Z,101275.41
2017-07-11T22:13:41.938Z,101273.57
2017-07-11T22:17:35.851Z,101275.52
2017-07-11T22:20:02.145Z,101273.52
2017-07-11T22:22:28.414Z,101270.42
2017-07-11T22:24:54.691Z,101261.33
2017-07-11T22:27:21.029Z,101262.78
2017-07-11T22:29:47.288Z,101251.63
2017-07-11T22:32:13.586Z,101245.84
2017-07-11T22:34:40.349Z,101240.09
2017-07-11T22:37:06.607Z,101239.79
2017-07-11T22:39:32.864Z,101240.98
2017-07-11T22:41:59.119Z,101241.50
2017-07-11T22:44:25.405Z,101244.78
2017-07-11T22:46:51.660Z,101240.55
2017-07-11T22:49:17.904Z,101238.02
2017-07-11T22:51:44.147Z,101249.55
2017-07-11T22:54:10.401Z,101240.28
2017-07-11T22:56:36.668Z,101243.64
2017-07-11T22:59:02.916Z,101236.41
2017-07-11T23:01:29.189Z,101236.27
2017-07-11T23:03:55.437Z,101236.67
2017-07-11T23:06:22.434Z,101237.19
2017-07-11T23:08:48.731Z,101224.97
2017-07-11T23:11:14.995Z,101227.97
2017-07-11T23:13:41.252Z,101223.69
2017-07-11T23:17:35.488Z,101220.53
2017-07-11T23:20:01.953Z,101215.56
2017-07-11T23:22:28.218Z,101218.09
2017-07-11T23:24:55.196Z,101218.77
2017-07-11T23:27:21.455Z,101216.64
2017-07-11T23:29:47.781Z,101214.06
2017-07-11T23:32:14.008Z,101210.21
2017-07-11T23:34:40.298Z,101205.02
2017-07-11T23:37:06.565Z,101210.08
2017-07-11T23:39:32.823Z,101210.39
2017-07-11T23:41:59.070Z,101202.95
2017-07-11T23:44:25.326Z,101189.60
2017-07-11T23:46:51.601Z,101181.13
2017-07-11T23:49:17.871Z,101183.80
2017-07-11T23:51:44.115Z,101178.19
2017-07-11T23:54:10.386Z,101182.07
2017-07-11T23:56:36.645Z,101175.33
2017-07-11T23:59:02.925Z,101173.95
